Time;durP1;ratioP1;P1;durP2;ratioP2;P2;SDS_P1;SDS_P2;PMS_P1;PMS_P2;Temp;Humidity;BMP_temperature;BMP_pressure;BME280_temperature;BME280_humidity;BME280_pressure;Samples;Min_cycle;Max_cycle;Signal;HPM_P1;HPM_P2
2023/01/25 00:02:00;;;;;;;30.67;23.83;;;1.00;99.90;;;;;;5109491;28;20122;-69
2023/01/25 00:04:26;;;;;;;29.48;22.42;;;1.70;99.90;;;;;;5089808;28;20364;-67
2023/01/25 00:06:52;;;;;;;31.70;24.83;;;1.00;99.90;;;;;;5113481;28;20440;-66
2023/01/25 00:09:19;;;;;;;30.17;23.52;;;1.00;99.90;;;;;;5085985;28;20079;-66
2023/01/25 00:11:45;;;;;;;29.67;23.55;;;1.00;99.90;;;;;;5115072;28;20053;-67
2023/01/25 00:14:12;;;;;;;31.10;23.90;;;1.00;99.90;;;;;;5112704;28;20391;-68
2023/01/25 00:16:39;;;;;;;31.38;23.83;;;1.00;99.90;;;;;;5113961;28;20072;-67
2023/01/25 00:19:05;;;;;;;29.17;23.23;;;1.30;99.90;;;;;;5114735;28;20052;-67
2023/01/25 00:21:32;;;;;;;30.50;23.13;;;1.00;99.90;;;;;;5114293;28;20166;-67
2023/01/25 00:23:58;;;;;;;30.98;23.77;;;1.00;99.90;;;;;;5092617;28;20095;-68
2023/01/25 00:26:24;;;;;;;29.95;23.27;;;1.00;99.90;;;;;;5079677;28;20397;-66
2023/01/25 00:28:51;;;;;;;28.83;22.70;;;1.00;99.90;;;;;;5089509;28;20066;-66
2023/01/25 00:31:32;;;;;;;29.88;22.92;;;1.00;99.90;;;;;;5106882;28;20044;-67
2023/01/25 00:34:24;;;;;;;29.70;23.83;;;1.00;99.90;;;;;;5101596;28;20051;-66
2023/01/25 00:37:12;;;;;;;32.17;24.52;;;0.90;99.90;;;;;;5055507;28;20051;-66
2023/01/25 00:39:38;;;;;;;30.45;24.30;;;0.90;99.90;;;;;;5093145;28;20126;-66
2023/01/25 00:42:04;;;;;;;31.85;24.08;;;1.00;99.90;;;;;;5107213;28;20162;-67
2023/01/25 00:44:30;;;;;;;28.98;24.27;;;0.90;99.90;;;;;;5103975;28;20048;-67
2023/01/25 00:46:56;;;;;;;32.25;24.90;;;1.40;99.90;;;;;;5093318;28;20051;-66
2023/01/25 00:49:26;;;;;;;30.85;25.38;;;0.90;99.90;;;;;;5080203;28;20051;-66
2023/01/25 00:51:54;;;;;;;31.63;25.15;;;0.90;99.90;;;;;;5097854;28;20128;-66
2023/01/25 00:54:21;;;;;;;30.70;24.38;;;1.40;99.90;;;;;;5078677;28;20050;-66
2023/01/25 00:56:47;;;;;;;31.55;24.70;;;0.90;99.90;;;;;;5087322;28;20054;-67
2023/01/25 00:59:13;;;;;;;28.42;23.33;;;0.90;99.90;;;;;;5091722;28;20059;-66
2023/01/25 01:01:40;;;;;;;30.83;24.42;;;1.10;99.90;;;;;;5104740;28;20130;-67
2023/01/25 01:04:06;;;;;;;33.60;25.58;;;0.90;99.90;;;;;;5107906;28;20040;-67
2023/01/25 01:06:35;;;;;;;31.50;23.88;;;0.80;99.90;;;;;;5093795;28;20579;-66
2023/01/25 01:09:01;;;;;;;31.73;24.40;;;0.80;99.90;;;;;;5099360;28;20127;-66
2023/01/25 01:11:26;;;;;;;32.08;24.48;;;0.80;99.90;;;;;;5113415;28;20044;-66
2023/01/25 01:13:52;;;;;;;34.22;24.83;;;0.80;99.90;;;;;;5077081;28;20055;-66
2023/01/25 01:16:18;;;;;;;35.45;26.45;;;0.80;99.90;;;;;;5077315;28;20090;-68
2023/01/25 01:18:44;;;;;;;37.75;27.95;;;1.00;99.90;;;;;;5094742;28;20056;-67
2023/01/25 01:21:12;;;;;;;38.70;28.05;;;0.70;99.90;;;;;;5090075;28;20043;-66
2023/01/25 01:23:38;;;;;;;37.97;28.15;;;0.70;99.90;;;;;;5098881;28;20043;-67
2023/01/25 01:26:07;;;;;;;40.38;29.60;;;0.70;99.90;;;;;;5095269;28;20546;-67
2023/01/25 01:28:35;;;;;;;39.17;29.45;;;0.60;99.90;;;;;;5099918;28;20063;-66
2023/01/25 01:31:15;;;;;;;40.45;29.27;;;0.60;99.90;;;;;;5087260;28;20055;-66
2023/01/25 01:33:41;;;;;;;41.40;28.33;;;0.60;99.90;;;;;;5111252;28;20055;-67
2023/01/25 01:36:13;;;;;;;36.88;27.27;;;1.30;99.90;;;;;;5086123;28;20406;-66
2023/01/25 01:38:39;;;;;;;39.35;28.58;;;0.60;99.90;;;;;;5093300;28;20058;-67
2023/01/25 01:41:05;;;;;;;36.13;26.05;;;0.60;99.90;;;;;;5093451;28;20082;-67
2023/01/25 01:43:31;;;;;;;36.03;26.98;;;0.80;99.90;;;;;;5076230;28;20385;-66
2023/01/25 01:45:58;;;;;;;35.25;26.92;;;0.60;99.90;;;;;;5100199;28;20048;-66
2023/01/25 01:48:51;;;;;;;35.55;26.33;;;0.60;99.90;;;;;;5096715;28;20043;-66
2023/01/25 01:51:28;;;;;;;37.90;28.05;;;0.60;99.90;;;;;;5092882;28;20532;-67
2023/01/25 01:54:02;;;;;;;34.50;26.73;;;0.60;99.90;;;;;;5088460;28;20103;-67
2023/01/25 01:56:50;;;;;;;37.17;27.00;;;0.50;99.90;;;;;;5108200;28;20384;-66
2023/01/25 01:59:17;;;;;;;35.60;26.30;;;0.80;99.90;;;;;;5093032;28;20105;-66
2023/01/25 02:01:44;;;;;;;38.47;29.00;;;0.60;99.90;;;;;;5108329;28;20047;-65
2023/01/25 02:04:11;;;;;;;38.55;28.65;;;0.80;99.90;;;;;;5112654;28;20091;-67
2023/01/25 02:06:46;;;;;;;37.30;29.10;;;0.60;99.90;;;;;;5104429;28;20040;-66
2023/01/25 02:09:13;;;;;;;;;;;0.60;99.90;;;;;;5110383;28;20047;-66
2023/01/25 02:11:39;;;;;;;36.78;29.35;;;0.90;99.90;;;;;;5084005;28;19920;-66
2023/01/25 02:14:05;;;;;;;37.78;29.88;;;0.60;99.90;;;;;;5071434;28;20043;-66
2023/01/25 02:16:31;;;;;;;37.42;28.85;;;0.70;99.90;;;;;;5075722;28;20465;-66
2023/01/25 02:19:01;;;;;;;36.58;29.33;;;0.70;99.90;;;;;;5101894;28;20039;-67
2023/01/25 02:21:32;;;;;;;35.25;28.45;;;0.90;99.90;;;;;;5100592;28;20062;-69
2023/01/25 02:24:25;;;;;;;34.65;27.65;;;0.70;99.90;;;;;;5091168;28;20101;-67
2023/01/25 02:26:50;;;;;;;35.22;28.42;;;0.70;99.90;;;;;;5105917;28;20048;-67
2023/01/25 02:29:18;;;;;;;34.78;27.60;;;0.60;99.90;;;;;;5102058;28;20053;-67
2023/01/25 02:31:45;;;;;;;38.47;29.35;;;0.60;99.90;;;;;;5092277;28;20056;-67
2023/01/25 02:34:11;;;;;;;37.83;29.80;;;0.60;99.90;;;;;;5112303;28;20164;-66
2023/01/25 02:36:37;;;;;;;38.35;29.55;;;0.60;99.90;;;;;;5093412;28;20044;-66
2023/01/25 02:39:07;;;;;;;40.08;30.05;;;1.10;99.90;;;;;;5104234;28;20043;-66
2023/01/25 02:41:41;;;;;;;40.03;30.10;;;0.60;99.90;;;;;;5111425;28;20063;-66
2023/01/25 02:44:17;;;;;;;42.88;32.53;;;0.60;99.90;;;;;;5094542;28;20135;-66
2023/01/25 02:46:49;;;;;;;39.05;29.45;;;1.30;99.90;;;;;;5094442;28;20058;-67
2023/01/25 02:49:15;;;;;;;42.25;30.23;;;0.60;99.90;;;;;;5103014;28;20096;-66
2023/01/25 02:51:45;;;;;;;39.17;29.95;;;0.60;99.90;;;;;;5090591;28;20051;-66
2023/01/25 02:54:12;;;;;;;40.42;30.48;;;1.30;99.90;;;;;;5106283;28;20044;-67
2023/01/25 02:56:41;;;;;;;40.80;30.50;;;0.50;99.90;;;;;;5099170;28;20399;-67
2023/01/25 02:59:09;;;;;;;41.80;28.95;;;0.50;99.90;;;;;;5097167;28;20445;-66
2023/01/25 03:01:39;;;;;;;41.28;29.73;;;0.40;99.90;;;;;;5083664;28;20104;-66
2023/01/25 03:04:05;;;;;;;45.20;33.50;;;0.50;99.90;;;;;;5076673;28;20039;-67
2023/01/25 03:06:31;;;;;;;43.80;32.90;;;0.40;99.90;;;;;;5105335;28;20389;-70
2023/01/25 03:08:57;;;;;;;45.50;32.90;;;0.40;99.90;;;;;;5091360;28;20035;-66
2023/01/25 03:11:23;;;;;;;47.20;34.28;;;0.40;99.90;;;;;;5078797;28;20078;-66
2023/01/25 03:13:49;;;;;;;47.70;34.75;;;0.40;99.90;;;;;;5086168;28;20046;-66
2023/01/25 03:16:15;;;;;;;49.35;34.80;;;0.40;99.90;;;;;;5094467;28;20470;-65
2023/01/25 03:18:41;;;;;;;48.40;36.72;;;0.40;99.90;;;;;;5102083;28;20447;-66
2023/01/25 03:21:12;;;;;;;51.13;37.78;;;0.40;99.90;;;;;;5085196;28;20052;-66
2023/01/25 03:23:38;;;;;;;54.75;38.17;;;0.40;99.90;;;;;;5103401;28;20044;-66
2023/01/25 03:26:13;;;;;;;53.15;37.75;;;0.40;99.90;;;;;;5101074;28;20134;-66
2023/01/25 03:28:40;;;;;;;55.13;37.50;;;0.40;99.90;;;;;;5104530;28;20051;-66
2023/01/25 03:31:07;;;;;;;56.53;40.75;;;0.30;99.90;;;;;;5102791;28;20055;-66
2023/01/25 03:33:34;;;;;;;57.65;40.47;;;0.30;99.90;;;;;;5096153;28;20052;-66
2023/01/25 03:35:59;;;;;;;60.22;41.90;;;0.30;99.90;;;;;;5100704;28;20066;-66
2023/01/25 03:38:25;;;;;;;61.75;42.60;;;0.30;99.90;;;;;;5090158;28;20047;-67
2023/01/25 03:40:51;;;;;;;64.53;44.90;;;0.30;99.90;;;;;;5078045;28;20047;-67
2023/01/25 03:43:17;;;;;;;64.30;43.28;;;0.30;99.90;;;;;;5078467;28;20428;-66
2023/01/25 03:45:43;;;;;;;60.47;42.25;;;0.30;99.90;;;;;;5096127;28;20500;-67
2023/01/25 03:48:09;;;;;;;63.10;43.65;;;0.50;99.90;;;;;;5095957;28;20130;-67
2023/01/25 03:50:34;;;;;;;64.88;44.80;;;0.30;99.90;;;;;;5105727;28;20082;-66
2023/01/25 03:53:05;;;;;;;66.05;44.97;;;0.50;99.90;;;;;;5106525;28;20054;-66
2023/01/25 03:55:32;;;;;;;68.95;45.97;;;0.30;99.90;;;;;;5092696;28;20047;-66
2023/01/25 03:57:58;;;;;;;73.57;47.38;;;0.30;99.90;;;;;;5106746;28;20128;-66
2023/01/25 04:00:23;;;;;;;68.53;45.58;;;0.30;99.90;;;;;;5086527;28;20070;-66
2023/01/25 04:02:49;;;;;;;70.53;46.65;;;0.30;99.90;;;;;;5100784;28;20151;-67
2023/01/25 04:05:15;;;;;;;70.40;46.75;;;0.30;99.90;;;;;;5109178;28;20050;-67
2023/01/25 04:07:40;;;;;;;70.25;48.38;;;0.40;99.90;;;;;;5092304;28;20127;-69
2023/01/25 04:10:07;;;;;;;72.78;48.47;;;0.30;99.90;;;;;;5090410;28;20048;-67
2023/01/25 04:12:32;;;;;;;68.38;46.45;;;0.20;99.90;;;;;;5086836;28;20079;-67
2023/01/25 04:14:58;;;;;;;69.55;44.78;;;0.30;99.90;;;;;;5046550;28;20492;-66
2023/01/25 04:17:23;;;;;;;69.95;42.40;;;0.20;99.90;;;;;;5107582;28;20366;-66
2023/01/25 04:19:49;;;;;;;68.82;46.47;;;0.20;99.90;;;;;;5082970;28;20060;-66
2023/01/25 04:22:15;;;;;;;65.30;39.78;;;0.20;99.90;;;;;;5082840;28;20040;-66
2023/01/25 04:24:41;;;;;;;63.95;41.83;;;0.20;99.90;;;;;;5105372;28;20033;-69
2023/01/25 04:27:08;;;;;;;65.25;41.85;;;0.10;99.90;;;;;;5103278;28;20124;-67
2023/01/25 04:29:34;;;;;;;63.40;44.42;;;0.10;99.90;;;;;;5108224;28;20113;-67
2023/01/25 04:32:00;;;;;;;68.22;45.72;;;0.10;99.90;;;;;;5082450;28;20043;-67
2023/01/25 04:34:26;;;;;;;68.75;45.97;;;0.30;99.90;;;;;;5092721;28;20123;-67
2023/01/25 04:36:52;;;;;;;68.75;45.28;;;0.50;99.90;;;;;;5097094;28;20162;-66
2023/01/25 04:39:18;;;;;;;69.68;44.58;;;0.10;99.90;;;;;;5078000;28;20048;-66
2023/01/25 04:41:43;;;;;;;68.28;45.33;;;0.00;99.90;;;;;;5101964;28;20097;-68
2023/01/25 04:44:09;;;;;;;68.78;45.67;;;0.10;99.90;;;;;;5100307;28;20438;-66
2023/01/25 04:46:35;;;;;;;67.05;43.95;;;0.10;99.90;;;;;;5095980;28;20062;-67
2023/01/25 04:49:01;;;;;;;67.88;46.13;;;0.00;99.90;;;;;;5090741;28;20059;-67
2023/01/25 04:51:26;;;;;;;73.72;47.50;;;0.10;99.90;;;;;;5092074;28;20097;-67
2023/01/25 04:53:52;;;;;;;67.55;42.00;;;0.10;99.90;;;;;;5112287;28;20051;-67
2023/01/25 04:56:18;;;;;;;73.88;48.28;;;0.10;99.90;;;;;;5064875;28;20040;-66
2023/01/25 04:58:43;;;;;;;73.80;48.63;;;0.10;99.90;;;;;;5114057;28;20039;-66
2023/01/25 05:01:09;;;;;;;75.97;50.72;;;0.10;99.90;;;;;;5113053;28;20058;-67
2023/01/25 05:03:35;;;;;;;73.00;48.75;;;0.10;99.90;;;;;;5109604;28;20044;-67
2023/01/25 05:06:01;;;;;;;79.65;50.30;;;0.10;99.90;;;;;;5100098;28;20123;-68
2023/01/25 05:08:26;;;;;;;73.68;48.58;;;0.10;99.90;;;;;;5074638;28;20058;-66
2023/01/25 05:10:52;;;;;;;71.45;47.78;;;0.20;99.90;;;;;;5105408;28;20120;-67
2023/01/25 05:13:18;;;;;;;74.07;48.53;;;0.20;99.90;;;;;;5095185;28;20067;-66
2023/01/25 05:15:43;;;;;;;70.15;46.55;;;0.20;99.90;;;;;;5081133;28;20082;-65
2023/01/25 05:18:09;;;;;;;73.47;46.58;;;0.20;99.90;;;;;;5110768;28;20074;-66
2023/01/25 05:20:35;;;;;;;70.57;46.58;;;0.20;99.90;;;;;;5112526;28;20043;-67
2023/01/25 05:23:01;;;;;;;73.50;48.65;;;0.20;99.90;;;;;;5084985;28;20401;-66
2023/01/25 05:28:11;;;;;;;68.82;44.15;;;0.20;99.90;;;;;;5103404;28;20047;-66
2023/01/25 05:30:36;;;;;;;66.78;45.53;;;0.30;99.90;;;;;;5091440;28;20039;-67
2023/01/25 05:33:02;;;;;;;71.30;47.60;;;0.20;99.90;;;;;;5077929;28;20081;-66
2023/01/25 05:35:28;;;;;;;67.60;47.55;;;0.20;99.90;;;;;;5092128;28;20055;-67
2023/01/25 05:37:57;;;;;;;69.93;46.90;;;0.10;99.90;;;;;;5081379;28;20474;-66
2023/01/25 05:40:24;;;;;;;72.72;48.40;;;0.70;99.90;;;;;;5100219;28;20047;-66
2023/01/25 05:42:57;;;;;;;73.95;48.90;;;0.10;99.90;;;;;;5093872;28;20052;-66
2023/01/25 05:45:23;;;;;;;74.90;49.17;;;0.90;99.90;;;;;;5109028;28;20047;-66
2023/01/25 05:47:56;;;;;;;72.80;48.60;;;0.10;99.90;;;;;;5106960;28;20036;-67
2023/01/25 05:50:23;;;;;;;71.55;47.40;;;0.10;99.90;;;;;;5082861;28;20497;-66
2023/01/25 05:52:49;;;;;;;70.90;48.47;;;0.10;99.90;;;;;;5098530;28;20054;-67
2023/01/25 05:55:15;;;;;;;71.90;48.20;;;0.30;99.90;;;;;;5110979;28;20039;-66
2023/01/25 05:57:41;;;;;;;67.15;45.58;;;0.10;99.90;;;;;;5111024;28;20058;-66
2023/01/25 06:00:08;;;;;;;69.90;47.40;;;0.10;99.90;;;;;;5109350;28;20036;-66
2023/01/25 06:02:34;;;;;;;68.75;46.63;;;0.10;99.90;;;;;;5112913;28;20046;-66
2023/01/25 06:04:59;;;;;;;69.47;47.45;;;0.10;99.90;;;;;;5093251;28;20396;-67
2023/01/25 06:07:25;;;;;;;70.57;47.55;;;0.10;99.90;;;;;;5103276;28;20032;-66
2023/01/25 06:09:51;;;;;;;68.40;47.00;;;0.60;99.90;;;;;;5082213;28;20126;-67
2023/01/25 06:12:20;;;;;;;66.43;46.63;;;0.30;99.90;;;;;;5066932;28;20028;-67
2023/01/25 06:14:46;;;;;;;62.92;43.80;;;0.00;99.90;;;;;;5104709;28;20044;-67
2023/01/25 06:17:12;;;;;;;67.03;45.35;;;0.10;99.90;;;;;;5091222;28;20043;-67
2023/01/25 06:19:38;;;;;;;64.88;43.67;;;0.00;99.90;;;;;;5081298;28;20079;-66
2023/01/25 06:22:04;;;;;;;69.65;45.85;;;0.00;99.90;;;;;;5060711;28;20090;-67
2023/01/25 06:24:30;;;;;;;69.18;46.85;;;0.00;99.90;;;;;;5100451;28;20054;-66
2023/01/25 06:26:55;;;;;;;71.53;47.05;;;0.20;99.90;;;;;;5094181;28;20659;-66
2023/01/25 06:29:21;;;;;;;68.00;46.33;;;0.00;99.90;;;;;;5082547;28;20039;-67
2023/01/25 06:31:47;;;;;;;71.57;46.20;;;0.50;99.90;;;;;;5081509;28;20127;-66
2023/01/25 06:34:12;;;;;;;70.53;46.58;;;0.20;99.90;;;;;;5079039;28;20036;-67
2023/01/25 06:36:38;;;;;;;74.40;47.97;;;0.00;99.90;;;;;;5094244;28;20512;-67
2023/01/25 06:39:04;;;;;;;76.55;49.60;;;0.00;99.90;;;;;;5109020;28;20063;-67
2023/01/25 06:41:29;;;;;;;71.43;47.80;;;-0.10;99.90;;;;;;5081258;28;20105;-66
2023/01/25 06:43:56;;;;;;;71.85;47.45;;;-0.10;99.90;;;;;;5088293;28;20058;-66
2023/01/25 06:46:22;;;;;;;75.05;48.78;;;-0.10;99.90;;;;;;5067787;28;20197;-67
2023/01/25 06:48:47;;;;;;;73.32;49.15;;;-0.10;99.90;;;;;;5087998;28;20489;-66
2023/01/25 06:51:14;;;;;;;74.07;48.95;;;-0.10;99.90;;;;;;5107040;28;20563;-67
2023/01/25 06:53:42;;;;;;;72.43;48.05;;;0.50;99.90;;;;;;5067154;28;20051;-66
2023/01/25 06:56:14;;;;;;;67.15;45.42;;;-0.10;99.90;;;;;;5107977;28;20127;-66
2023/01/25 06:58:40;;;;;;;68.68;45.97;;;-0.10;99.90;;;;;;5091940;28;20043;-66
2023/01/25 07:01:29;;;;;;;68.50;45.60;;;0.30;99.90;;;;;;5103930;28;20432;-66
2023/01/25 07:03:57;;;;;;;68.75;46.47;;;0.50;99.90;;;;;;5086236;28;20051;-67
2023/01/25 07:06:24;;;;;;;70.78;47.83;;;-0.10;99.90;;;;;;5098230;28;20549;-66
2023/01/25 07:08:50;;;;;;;71.38;47.13;;;-0.10;99.90;;;;;;5109699;28;20192;-66
2023/01/25 07:11:17;;;;;;;67.72;46.40;;;-0.10;99.90;;;;;;5111132;28;20130;-66
2023/01/25 07:13:44;;;;;;;68.88;46.45;;;-0.10;99.90;;;;;;5099076;28;20452;-66
2023/01/25 07:16:18;;;;;;;68.30;47.58;;;-0.10;99.90;;;;;;5100223;28;20051;-66
2023/01/25 07:18:44;;;;;;;69.10;46.28;;;0.60;99.90;;;;;;5092510;28;20043;-66
2023/01/25 07:21:16;;;;;;;69.72;47.83;;;-0.10;99.90;;;;;;5107695;28;20074;-67
2023/01/25 07:23:42;;;;;;;71.35;47.63;;;-0.10;99.90;;;;;;5064875;28;20474;-66
2023/01/25 07:26:16;;;;;;;70.57;47.00;;;0.10;99.90;;;;;;5108945;28;20132;-69
2023/01/25 07:28:42;;;;;;;71.13;47.97;;;-0.10;99.90;;;;;;5111133;28;20177;-66
2023/01/25 07:31:08;;;;;;;71.78;47.42;;;-0.10;99.90;;;;;;5110656;28;20036;-69
2023/01/25 07:33:34;;;;;;;71.65;45.33;;;-0.10;99.90;;;;;;5105544;28;20118;-66
2023/01/25 07:36:08;;;;;;;68.05;46.83;;;-0.10;99.90;;;;;;5076066;28;20055;-66
2023/01/25 07:38:35;;;;;;;69.50;47.10;;;-0.10;99.90;;;;;;5101654;28;20126;-66
2023/01/25 07:41:01;;;;;;;64.88;44.72;;;-0.10;99.90;;;;;;5092786;28;20054;-66
2023/01/25 07:43:28;;;;;;;68.22;45.55;;;0.20;99.90;;;;;;5108069;28;20531;-66
2023/01/25 07:45:58;;;;;;;64.93;45.83;;;-0.10;99.90;;;;;;5108022;28;20047;-64
2023/01/25 07:48:24;;;;;;;65.13;43.92;;;-0.20;99.90;;;;;;5085380;28;20048;-66
2023/01/25 07:51:09;;;;;;;67.57;44.63;;;-0.10;99.90;;;;;;5075866;28;20043;-66
2023/01/25 07:53:34;;;;;;;65.40;44.47;;;0.10;99.90;;;;;;5076304;28;20192;-65
2023/01/25 07:56:00;;;;;;;60.17;41.92;;;-0.10;99.90;;;;;;5108550;28;20126;-65
2023/01/25 07:58:26;;;;;;;55.67;40.20;;;-0.10;99.90;;;;;;5108228;28;20119;-66
2023/01/25 08:00:52;;;;;;;55.72;40.70;;;-0.10;99.90;;;;;;5089222;28;20043;-66
2023/01/25 08:03:21;;;;;;;57.70;41.17;;;-0.20;99.90;;;;;;5082092;28;20048;-65
2023/01/25 08:05:47;;;;;;;56.85;41.08;;;-0.20;99.90;;;;;;5072330;28;20051;-66
2023/01/25 08:08:14;;;;;;;58.15;40.97;;;-0.20;99.90;;;;;;5089265;28;20439;-69
2023/01/25 08:10:40;;;;;;;52.67;38.72;;;-0.30;99.90;;;;;;5090249;28;20508;-66
2023/01/25 08:13:05;;;;;;;52.35;37.92;;;-0.20;99.90;;;;;;5102922;28;20047;-66
2023/01/25 08:15:31;;;;;;;49.05;37.30;;;-0.30;99.90;;;;;;5095650;28;20048;-66
2023/01/25 08:18:00;;;;;;;49.38;38.17;;;0.00;99.90;;;;;;5090725;28;20488;-67
2023/01/25 08:20:26;;;;;;;52.28;38.85;;;-0.30;99.90;;;;;;5088567;28;20090;-66
2023/01/25 08:22:52;;;;;;;49.95;38.03;;;-0.30;99.90;;;;;;5070019;28;20389;-65
2023/01/25 08:25:18;;;;;;;52.10;39.83;;;-0.40;99.90;;;;;;5103330;28;20035;-67
2023/01/25 08:27:44;;;;;;;51.60;39.40;;;-0.40;99.90;;;;;;5090242;28;20046;-66
2023/01/25 08:30:11;;;;;;;52.92;40.47;;;-0.30;99.90;;;;;;5112509;28;20402;-66
2023/01/25 08:32:37;;;;;;;55.63;39.47;;;-0.40;99.90;;;;;;5101302;28;20119;-65
2023/01/25 08:35:04;;;;;;;54.10;40.17;;;-0.40;99.90;;;;;;5080827;28;20048;-66
2023/01/25 08:37:29;;;;;;;52.75;39.97;;;-0.40;99.90;;;;;;5086190;28;20044;-66
2023/01/25 08:39:56;;;;;;;53.03;38.88;;;-0.30;99.90;;;;;;5104213;28;20090;-68
2023/01/25 08:42:23;;;;;;;53.45;39.28;;;0.40;99.90;;;;;;5105395;28;20063;-67
2023/01/25 08:44:49;;;;;;;52.30;39.22;;;-0.30;99.90;;;;;;5110576;28;20073;-66
2023/01/25 08:47:14;;;;;;;55.40;40.28;;;0.10;99.90;;;;;;5097075;28;20045;-67
2023/01/25 08:49:40;;;;;;;53.53;39.13;;;-0.30;99.90;;;;;;5088826;28;20047;-67
2023/01/25 08:52:06;;;;;;;53.22;38.42;;;-0.20;99.90;;;;;;5080284;28;20105;-66
2023/01/25 08:54:31;;;;;;;53.97;37.80;;;-0.20;99.90;;;;;;5086410;28;20071;-68
2023/01/25 08:56:57;;;;;;;53.33;39.28;;;-0.20;99.90;;;;;;5090247;28;20089;-66
2023/01/25 08:59:23;;;;;;;57.65;43.10;;;0.30;99.90;;;;;;5103248;28;20122;-67
2023/01/25 09:01:49;;;;;;;57.50;42.63;;;-0.30;99.90;;;;;;5099038;28;20054;-66
2023/01/25 09:04:15;;;;;;;58.65;41.75;;;0.30;99.90;;;;;;5105707;28;20055;-66
2023/01/25 09:06:40;;;;;;;58.88;41.53;;;-0.30;99.90;;;;;;5112768;28;20142;-67
2023/01/25 09:09:07;;;;;;;57.65;41.13;;;0.10;99.90;;;;;;5111908;28;20083;-67
2023/01/25 09:11:35;;;;;;;54.63;39.08;;;-0.20;99.90;;;;;;5096732;28;20044;-66
2023/01/25 09:14:01;;;;;;;55.25;39.15;;;-0.30;99.90;;;;;;5086563;28;20052;-67
2023/01/25 09:16:27;;;;;;;55.20;40.38;;;-0.30;99.90;;;;;;5080721;28;20044;-67
2023/01/25 09:18:55;;;;;;;60.78;43.33;;;-0.30;99.90;;;;;;5107057;28;20043;-67
2023/01/25 09:21:21;;;;;;;58.05;40.83;;;-0.30;99.90;;;;;;5097195;28;20145;-70
2023/01/25 09:23:49;;;;;;;59.83;41.80;;;-0.30;99.90;;;;;;5086786;28;20052;-67
2023/01/25 09:26:15;;;;;;;61.00;42.90;;;-0.30;99.90;;;;;;5080453;28;20134;-67
2023/01/25 09:28:44;;;;;;;60.63;41.97;;;-0.30;99.90;;;;;;5085009;28;20047;-68
2023/01/25 09:31:10;;;;;;;57.38;40.05;;;-0.30;99.90;;;;;;5084797;28;20144;-67
2023/01/25 09:33:37;;;;;;;61.08;42.40;;;-0.10;99.90;;;;;;5079755;28;20090;-66
2023/01/25 09:36:04;;;;;;;63.00;42.15;;;-0.30;99.90;;;;;;5098479;28;20039;-66
2023/01/25 09:38:30;;;;;;;61.88;42.90;;;-0.40;99.90;;;;;;5094450;28;20055;-66
2023/01/25 09:41:17;;;;;;;64.90;44.75;;;-0.40;99.90;;;;;;5068552;28;20043;-66
2023/01/25 09:44:04;;;;;;;60.38;40.83;;;-0.50;99.90;;;;;;5093470;28;20853;-68
2023/01/25 09:46:53;;;;;;;63.45;42.08;;;-0.40;99.90;;;;;;5085125;28;20131;-66
2023/01/25 09:49:56;;;;;;;61.47;41.60;;;-0.40;99.90;;;;;;5109446;28;20390;-65
2023/01/25 09:52:47;;;;;;;63.22;41.25;;;-0.40;99.90;;;;;;5108931;28;20055;-66
2023/01/25 09:55:15;;;;;;;60.33;40.95;;;-0.40;99.90;;;;;;5113106;28;20125;-67
2023/01/25 09:57:44;;;;;;;64.63;43.08;;;-0.40;99.90;;;;;;5093958;28;20039;-66
2023/01/25 10:00:25;;;;;;;69.30;44.88;;;-0.20;99.90;;;;;;5093520;28;20043;-66
2023/01/25 10:03:20;;;;;;;64.78;43.17;;;-0.30;99.90;;;;;;5083533;28;20517;-67
2023/01/25 10:05:49;;;;;;;66.45;42.47;;;-0.30;99.90;;;;;;5094395;27;20140;-66
2023/01/25 10:08:28;;;;;;;67.38;42.92;;;0.00;99.90;;;;;;5109535;28;20168;-66
2023/01/25 10:11:04;;;;;;;69.78;43.53;;;-0.20;99.90;;;;;;5109196;28;20074;-66
2023/01/25 10:13:30;;;;;;;69.57;43.65;;;-0.20;99.90;;;;;;5109353;28;20075;-70
2023/01/25 10:16:06;;;;;;;66.00;44.65;;;-0.20;99.90;;;;;;5089177;28;20058;-67
2023/01/25 10:18:39;;;;;;;67.50;42.40;;;-0.20;99.90;;;;;;5092953;28;20473;-66
2023/01/25 10:21:29;;;;;;;67.80;44.72;;;-0.20;99.90;;;;;;5069893;28;20052;-67
2023/01/25 10:24:07;;;;;;;65.60;42.47;;;-0.20;99.90;;;;;;5109932;28;20078;-67
2023/01/25 10:26:41;;;;;;;68.63;42.95;;;-0.20;99.90;;;;;;5094195;28;20400;-66
2023/01/25 10:29:19;;;;;;;68.90;43.30;;;-0.20;99.90;;;;;;5106700;28;20048;-67
2023/01/25 10:31:49;;;;;;;64.75;41.22;;;-0.10;99.90;;;;;;5109913;28;20040;-68
2023/01/25 10:34:43;;;;;;;67.63;43.38;;;-0.10;99.90;;;;;;5066372;28;21304;-67
2023/01/25 10:37:15;;;;;;;60.00;40.28;;;-0.10;99.90;;;;;;5100449;28;20036;-67
2023/01/25 10:40:01;;;;;;;61.97;40.92;;;0.00;99.90;;;;;;5090074;28;20050;-66
2023/01/25 10:42:32;;;;;;;63.00;41.15;;;0.00;99.90;;;;;;5093654;28;20047;-66
2023/01/25 10:44:57;;;;;;;65.93;39.70;;;0.00;99.90;;;;;;5090434;28;20055;-68
2023/01/25 10:47:28;;;;;;;61.97;40.92;;;0.00;99.90;;;;;;5110294;28;20040;-67
2023/01/25 10:49:55;;;;;;;60.30;38.60;;;0.00;99.90;;;;;;5111464;28;20044;-67
2023/01/25 10:52:30;;;;;;;63.63;39.25;;;0.10;99.90;;;;;;5112167;28;20054;-67
2023/01/25 10:55:14;;;;;;;;;;;0.10;99.90;;;;;;5081391;28;20060;-67
2023/01/25 10:57:46;;;;;;;59.38;37.20;;;0.10;99.90;;;;;;5089153;28;19924;-66
2023/01/25 11:00:38;;;;;;;64.93;40.08;;;0.20;99.90;;;;;;5090321;28;20105;-67
2023/01/25 11:03:04;;;;;;;65.45;41.85;;;0.20;99.90;;;;;;5105859;28;20047;-67
2023/01/25 11:05:33;;;;;;;63.10;39.55;;;0.20;99.90;;;;;;5090401;28;20059;-66
2023/01/25 11:08:29;;;;;;;65.45;38.38;;;0.20;99.90;;;;;;5097505;28;20064;-65
2023/01/25 11:10:55;;;;;;;66.72;41.42;;;0.20;99.90;;;;;;5098201;28;20585;-67
2023/01/25 11:13:24;;;;;;;66.28;39.28;;;0.70;99.90;;;;;;5081971;28;20051;-65
2023/01/25 11:16:00;;;;;;;62.10;38.60;;;1.10;99.90;;;;;;5105948;28;20523;-64
2023/01/25 11:18:30;;;;;;;62.92;38.45;;;0.30;99.90;;;;;;5110147;28;20125;-66
2023/01/25 11:21:24;;;;;;;60.63;36.47;;;0.40;99.90;;;;;;5088628;28;20052;-64
2023/01/25 11:24:10;;;;;;;63.40;39.10;;;0.30;99.90;;;;;;5110749;28;20433;-65
2023/01/25 11:26:39;;;;;;;60.60;36.45;;;0.40;99.90;;;;;;5090563;28;20549;-65
2023/01/25 11:29:21;;;;;;;64.63;37.55;;;1.00;99.90;;;;;;5111596;28;20043;-66
2023/01/25 11:31:56;;;;;;;64.35;38.03;;;0.30;99.90;;;;;;5104472;28;20054;-66
2023/01/25 11:34:27;;;;;;;62.63;36.70;;;0.40;99.90;;;;;;5067018;28;20133;-67
2023/01/25 11:37:12;;;;;;;61.90;33.83;;;0.70;99.90;;;;;;5101176;28;20066;-67
2023/01/25 11:40:01;;;;;;;58.38;33.42;;;0.50;99.90;;;;;;5107464;28;20043;-69
2023/01/25 11:42:41;;;;;;;62.60;34.70;;;0.40;99.90;;;;;;5075011;28;20492;-68
2023/01/25 11:45:16;;;;;;;66.10;37.83;;;0.50;99.90;;;;;;5111538;28;20046;-66
2023/01/25 11:47:48;;;;;;;60.97;31.40;;;0.50;99.90;;;;;;5069715;28;20064;-67
2023/01/25 11:50:41;;;;;;;64.07;37.83;;;0.50;99.90;;;;;;5111176;28;20043;-67
2023/01/25 11:53:23;;;;;;;67.15;38.10;;;0.50;99.90;;;;;;5109454;28;20057;-67
2023/01/25 11:55:59;;;;;;;64.95;37.30;;;0.50;99.90;;;;;;5111208;28;20048;-68
2023/01/25 11:58:25;;;;;;;72.13;37.13;;;0.50;99.90;;;;;;5087038;28;20042;-68
2023/01/25 12:01:09;;;;;;;69.80;38.53;;;0.50;99.90;;;;;;5082803;28;20056;-68
2023/01/25 12:03:58;;;;;;;60.28;35.45;;;0.60;99.90;;;;;;5104339;28;20047;-68
2023/01/25 12:06:46;;;;;;;63.13;36.55;;;0.60;99.90;;;;;;5104133;28;20046;-66
2023/01/25 12:09:29;;;;;;;65.05;34.95;;;0.60;99.90;;;;;;5098237;28;20059;-67
2023/01/25 12:12:10;;;;;;;63.55;37.40;;;0.60;99.90;;;;;;5103951;28;20044;-67
2023/01/25 12:14:54;;;;;;;68.68;36.67;;;0.60;99.90;;;;;;5100761;28;20544;-66
2023/01/25 12:18:01;;;;;;;69.90;36.78;;;0.60;99.90;;;;;;5110838;28;20083;-64
2023/01/25 12:20:51;;;;;;;69.07;35.70;;;0.70;99.90;;;;;;5084847;28;20040;-67
2023/01/25 12:23:51;;;;;;;68.95;35.55;;;0.70;99.90;;;;;;5084867;28;20096;-67
2023/01/25 12:26:28;;;;;;;68.47;36.17;;;0.70;99.90;;;;;;5107585;28;20083;-67
2023/01/25 12:29:01;;;;;;;67.55;36.58;;;0.70;99.90;;;;;;5110253;28;20055;-67
2023/01/25 12:32:00;;;;;;;62.95;34.22;;;0.70;99.90;;;;;;5109877;28;20449;-66
2023/01/25 12:34:30;;;;;;;68.85;34.80;;;0.80;99.90;;;;;;5086966;28;20040;-67
2023/01/25 12:37:02;;;;;;;66.45;35.50;;;1.40;99.90;;;;;;5084831;28;20051;-66
2023/01/25 12:39:36;;;;;;;67.85;35.28;;;1.30;99.90;;;;;;5109745;28;20492;-67
2023/01/25 12:42:15;;;;;;;68.25;35.30;;;1.00;99.90;;;;;;5065219;28;20059;-67
2023/01/25 12:44:48;;;;;;;71.90;35.20;;;0.80;99.90;;;;;;5110825;28;20096;-66
2023/01/25 12:47:27;;;;;;;66.95;32.38;;;0.80;99.90;;;;;;5110490;28;20481;-67
2023/01/25 12:50:03;;;;;;;62.80;33.28;;;0.80;99.90;;;;;;5091921;28;20056;-66
2023/01/25 12:52:36;;;;;;;62.17;31.67;;;0.80;99.90;;;;;;5106277;28;20051;-67
2023/01/25 12:55:11;;;;;;;65.57;32.92;;;0.70;99.90;;;;;;5097684;28;20052;-67